METAR Data
IDs: Format: Raw Decoded Include TAF

Data at: 2107 UTC 18 Apr 2021

KASW 182055Z AUTO 27007KT 10SM SCT080 15/M02 A2988 RMK AO2